sensor_id;sensor_type;location;lat;lon;timestamp;P1;durP1;ratioP1;P2;durP2;ratioP2
62927;SDS011;51070;52.236;-0.892;2022-09-09T00:00:46;7.50;;;2.90;;
62927;SDS011;51070;52.236;-0.892;2022-09-09T00:03:16;7.20;;;3.30;;
62927;SDS011;51070;52.236;-0.892;2022-09-09T00:08:46;9.90;;;2.80;;
62927;SDS011;51070;52.236;-0.892;2022-09-09T00:11:16;8.90;;;3.00;;
62927;SDS011;51070;52.236;-0.892;2022-09-09T00:17:04;7.80;;;2.80;;
62927;SDS011;51070;52.236;-0.892;2022-09-09T00:22:24;7.10;;;2.60;;
62927;SDS011;51070;52.236;-0.892;2022-09-09T00:24:53;7.00;;;3.00;;
62927;SDS011;51070;52.236;-0.892;2022-09-09T00:30:23;9.70;;;3.90;;
62927;SDS011;51070;52.236;-0.892;2022-09-09T00:33:33;12.50;;;4.80;;
62927;SDS011;51070;52.236;-0.892;2022-09-09T00:35:44;7.80;;;3.70;;
62927;SDS011;51070;52.236;-0.892;2022-09-09T00:38:15;9.20;;;5.00;;
62927;SDS011;51070;52.236;-0.892;2022-09-09T00:43:56;20.20;;;5.90;;
62927;SDS011;51070;52.236;-0.892;2022-09-09T00:49:15;8.30;;;3.90;;
62927;SDS011;51070;52.236;-0.892;2022-09-09T00:54:40;9.30;;;3.20;;
62927;SDS011;51070;52.236;-0.892;2022-09-09T00:57:29;8.70;;;3.30;;
62927;SDS011;51070;52.236;-0.892;2022-09-09T01:05:19;7.20;;;2.60;;
62927;SDS011;51070;52.236;-0.892;2022-09-09T01:07:55;7.00;;;2.70;;
62927;SDS011;51070;52.236;-0.892;2022-09-09T01:10:44;5.60;;;2.80;;
62927;SDS011;51070;52.236;-0.892;2022-09-09T01:13:28;5.30;;;2.60;;
62927;SDS011;51070;52.236;-0.892;2022-09-09T01:15:56;10.70;;;3.80;;
62927;SDS011;51070;52.236;-0.892;2022-09-09T01:18:35;8.70;;;3.70;;
62927;SDS011;51070;52.236;-0.892;2022-09-09T01:23:49;12.20;;;3.70;;
62927;SDS011;51070;52.236;-0.892;2022-09-09T01:28:55;8.50;;;3.60;;
62927;SDS011;51070;52.236;-0.892;2022-09-09T01:31:28;5.10;;;2.80;;
62927;SDS011;51070;52.236;-0.892;2022-09-09T01:33:57;8.90;;;3.10;;
62927;SDS011;51070;52.236;-0.892;2022-09-09T01:36:25;5.40;;;2.60;;
62927;SDS011;51070;52.236;-0.892;2022-09-09T01:38:58;8.10;;;2.90;;
62927;SDS011;51070;52.236;-0.892;2022-09-09T01:41:25;6.20;;;3.30;;
62927;SDS011;51070;52.236;-0.892;2022-09-09T01:43:50;11.80;;;3.90;;
62927;SDS011;51070;52.236;-0.892;2022-09-09T01:46:17;6.60;;;3.60;;
62927;SDS011;51070;52.236;-0.892;2022-09-09T01:48:46;10.50;;;4.40;;
62927;SDS011;51070;52.236;-0.892;2022-09-09T01:51:13;7.60;;;4.00;;
62927;SDS011;51070;52.236;-0.892;2022-09-09T01:53:39;8.10;;;3.50;;
62927;SDS011;51070;52.236;-0.892;2022-09-09T02:01:51;12.40;;;4.50;;
62927;SDS011;51070;52.236;-0.892;2022-09-09T02:04:21;9.70;;;4.10;;
62927;SDS011;51070;52.236;-0.892;2022-09-09T02:06:49;10.30;;;4.00;;
62927;SDS011;51070;52.236;-0.892;2022-09-09T02:09:21;6.80;;;4.20;;
62927;SDS011;51070;52.236;-0.892;2022-09-09T02:11:49;6.40;;;3.80;;
62927;SDS011;51070;52.236;-0.892;2022-09-09T02:14:25;10.60;;;5.60;;
62927;SDS011;51070;52.236;-0.892;2022-09-09T02:16:57;8.30;;;4.60;;
62927;SDS011;51070;52.236;-0.892;2022-09-09T02:19:32;9.60;;;4.50;;
62927;SDS011;51070;52.236;-0.892;2022-09-09T02:22:02;10.40;;;6.10;;
62927;SDS011;51070;52.236;-0.892;2022-09-09T02:24:29;10.10;;;6.20;;
62927;SDS011;51070;52.236;-0.892;2022-09-09T02:26:59;14.90;;;7.10;;
62927;SDS011;51070;52.236;-0.892;2022-09-09T02:29:31;8.50;;;5.70;;
62927;SDS011;51070;52.236;-0.892;2022-09-09T02:32:00;13.30;;;5.30;;
62927;SDS011;51070;52.236;-0.892;2022-09-09T02:34:30;9.90;;;4.30;;
62927;SDS011;51070;52.236;-0.892;2022-09-09T02:37:01;13.00;;;5.30;;
62927;SDS011;51070;52.236;-0.892;2022-09-09T02:39:29;13.00;;;4.90;;
62927;SDS011;51070;52.236;-0.892;2022-09-09T02:41:54;13.00;;;4.90;;
62927;SDS011;51070;52.236;-0.892;2022-09-09T02:44:20;11.20;;;4.80;;
62927;SDS011;51070;52.236;-0.892;2022-09-09T02:52:02;11.20;;;4.70;;
62927;SDS011;51070;52.236;-0.892;2022-09-09T02:54:31;10.50;;;4.90;;
62927;SDS011;51070;52.236;-0.892;2022-09-09T02:57:12;11.40;;;5.00;;
62927;SDS011;51070;52.236;-0.892;2022-09-09T02:59:41;10.70;;;5.20;;
62927;SDS011;51070;52.236;-0.892;2022-09-09T03:02:09;7.90;;;4.70;;
62927;SDS011;51070;52.236;-0.892;2022-09-09T03:04:39;11.00;;;6.40;;
62927;SDS011;51070;52.236;-0.892;2022-09-09T03:07:05;12.90;;;4.90;;
62927;SDS011;51070;52.236;-0.892;2022-09-09T03:09:31;12.30;;;5.80;;
62927;SDS011;51070;52.236;-0.892;2022-09-09T03:12:00;9.30;;;4.90;;
62927;SDS011;51070;52.236;-0.892;2022-09-09T03:14:25;10.90;;;5.10;;
62927;SDS011;51070;52.236;-0.892;2022-09-09T03:16:51;11.50;;;5.70;;
62927;SDS011;51070;52.236;-0.892;2022-09-09T03:19:17;11.90;;;5.60;;
62927;SDS011;51070;52.236;-0.892;2022-09-09T03:21:44;10.30;;;5.00;;
62927;SDS011;51070;52.236;-0.892;2022-09-09T03:24:11;9.90;;;5.20;;
62927;SDS011;51070;52.236;-0.892;2022-09-09T03:26:37;9.00;;;5.00;;
62927;SDS011;51070;52.236;-0.892;2022-09-09T03:29:03;7.80;;;5.60;;
62927;SDS011;51070;52.236;-0.892;2022-09-09T03:31:32;9.40;;;5.10;;
62927;SDS011;51070;52.236;-0.892;2022-09-09T03:33:58;11.00;;;5.90;;
62927;SDS011;51070;52.236;-0.892;2022-09-09T03:36:24;8.30;;;5.30;;
62927;SDS011;51070;52.236;-0.892;2022-09-09T03:38:52;11.50;;;5.20;;
62927;SDS011;51070;52.236;-0.892;2022-09-09T03:41:19;7.60;;;4.30;;
62927;SDS011;51070;52.236;-0.892;2022-09-09T03:43:48;13.50;;;5.30;;
62927;SDS011;51070;52.236;-0.892;2022-09-09T03:46:15;10.30;;;4.90;;
62927;SDS011;51070;52.236;-0.892;2022-09-09T03:48:40;10.80;;;5.30;;
62927;SDS011;51070;52.236;-0.892;2022-09-09T03:51:06;8.40;;;5.00;;
62927;SDS011;51070;52.236;-0.892;2022-09-09T03:53:31;9.10;;;5.20;;
62927;SDS011;51070;52.236;-0.892;2022-09-09T03:55:57;10.20;;;5.20;;
62927;SDS011;51070;52.236;-0.892;2022-09-09T03:58:25;7.20;;;4.70;;
62927;SDS011;51070;52.236;-0.892;2022-09-09T04:00:58;12.90;;;5.50;;
62927;SDS011;51070;52.236;-0.892;2022-09-09T04:03:25;11.00;;;5.80;;
62927;SDS011;51070;52.236;-0.892;2022-09-09T04:05:51;12.60;;;6.00;;
62927;SDS011;51070;52.236;-0.892;2022-09-09T04:08:18;10.50;;;6.00;;
62927;SDS011;51070;52.236;-0.892;2022-09-09T04:10:45;8.50;;;5.90;;
62927;SDS011;51070;52.236;-0.892;2022-09-09T04:13:12;12.00;;;5.90;;
62927;SDS011;51070;52.236;-0.892;2022-09-09T04:15:39;8.20;;;5.30;;
62927;SDS011;51070;52.236;-0.892;2022-09-09T04:18:05;8.30;;;6.00;;
62927;SDS011;51070;52.236;-0.892;2022-09-09T04:20:31;11.40;;;5.70;;
62927;SDS011;51070;52.236;-0.892;2022-09-09T04:22:58;8.10;;;5.00;;
62927;SDS011;51070;52.236;-0.892;2022-09-09T04:25:23;13.80;;;6.00;;
62927;SDS011;51070;52.236;-0.892;2022-09-09T04:27:55;9.30;;;4.80;;
62927;SDS011;51070;52.236;-0.892;2022-09-09T04:30:22;10.50;;;5.20;;
62927;SDS011;51070;52.236;-0.892;2022-09-09T04:32:48;7.10;;;4.80;;
62927;SDS011;51070;52.236;-0.892;2022-09-09T04:35:14;8.00;;;5.50;;
62927;SDS011;51070;52.236;-0.892;2022-09-09T04:37:40;8.30;;;5.30;;
62927;SDS011;51070;52.236;-0.892;2022-09-09T04:40:06;9.10;;;5.60;;
62927;SDS011;51070;52.236;-0.892;2022-09-09T04:42:35;8.20;;;5.10;;
62927;SDS011;51070;52.236;-0.892;2022-09-09T04:45:01;7.30;;;5.00;;
62927;SDS011;51070;52.236;-0.892;2022-09-09T04:47:27;8.30;;;4.90;;
62927;SDS011;51070;52.236;-0.892;2022-09-09T04:49:53;8.80;;;5.10;;
62927;SDS011;51070;52.236;-0.892;2022-09-09T04:52:20;7.80;;;5.40;;
62927;SDS011;51070;52.236;-0.892;2022-09-09T04:54:46;8.80;;;5.50;;
62927;SDS011;51070;52.236;-0.892;2022-09-09T04:57:12;9.40;;;5.80;;
62927;SDS011;51070;52.236;-0.892;2022-09-09T04:59:37;9.60;;;5.20;;
62927;SDS011;51070;52.236;-0.892;2022-09-09T05:02:04;10.00;;;5.80;;
62927;SDS011;51070;52.236;-0.892;2022-09-09T05:04:31;12.20;;;6.60;;
62927;SDS011;51070;52.236;-0.892;2022-09-09T05:06:58;9.20;;;6.10;;
62927;SDS011;51070;52.236;-0.892;2022-09-09T05:09:24;7.50;;;5.90;;
62927;SDS011;51070;52.236;-0.892;2022-09-09T05:11:49;11.50;;;7.60;;
62927;SDS011;51070;52.236;-0.892;2022-09-09T05:14:16;12.30;;;6.60;;
62927;SDS011;51070;52.236;-0.892;2022-09-09T05:16:43;12.70;;;6.50;;
62927;SDS011;51070;52.236;-0.892;2022-09-09T05:19:10;14.70;;;6.20;;
62927;SDS011;51070;52.236;-0.892;2022-09-09T05:21:38;9.30;;;6.10;;
62927;SDS011;51070;52.236;-0.892;2022-09-09T05:24:03;14.10;;;6.90;;
62927;SDS011;51070;52.236;-0.892;2022-09-09T05:26:29;9.30;;;6.30;;
62927;SDS011;51070;52.236;-0.892;2022-09-09T05:28:54;10.40;;;6.80;;
62927;SDS011;51070;52.236;-0.892;2022-09-09T05:31:20;11.30;;;6.70;;
62927;SDS011;51070;52.236;-0.892;2022-09-09T05:33:46;13.50;;;6.80;;
62927;SDS011;51070;52.236;-0.892;2022-09-09T05:36:18;14.80;;;7.50;;
62927;SDS011;51070;52.236;-0.892;2022-09-09T05:38:45;12.80;;;6.70;;
62927;SDS011;51070;52.236;-0.892;2022-09-09T05:41:12;11.20;;;6.60;;
62927;SDS011;51070;52.236;-0.892;2022-09-09T05:43:40;13.10;;;7.30;;
62927;SDS011;51070;52.236;-0.892;2022-09-09T05:46:13;12.10;;;7.60;;
62927;SDS011;51070;52.236;-0.892;2022-09-09T05:48:43;13.40;;;7.20;;
62927;SDS011;51070;52.236;-0.892;2022-09-09T05:51:12;14.70;;;7.80;;
62927;SDS011;51070;52.236;-0.892;2022-09-09T05:53:41;13.00;;;7.70;;
62927;SDS011;51070;52.236;-0.892;2022-09-09T05:56:12;15.00;;;8.90;;
62927;SDS011;51070;52.236;-0.892;2022-09-09T05:58:39;16.30;;;9.40;;
62927;SDS011;51070;52.236;-0.892;2022-09-09T06:01:09;16.50;;;9.80;;
62927;SDS011;51070;52.236;-0.892;2022-09-09T06:03:39;14.50;;;9.40;;
62927;SDS011;51070;52.236;-0.892;2022-09-09T06:06:07;18.00;;;9.30;;
62927;SDS011;51070;52.236;-0.892;2022-09-09T06:13:31;16.10;;;9.40;;
62927;SDS011;51070;52.236;-0.892;2022-09-09T06:15:59;17.50;;;9.90;;
62927;SDS011;51070;52.236;-0.892;2022-09-09T06:18:25;18.50;;;10.40;;
62927;SDS011;51070;52.236;-0.892;2022-09-09T06:20:55;15.60;;;8.70;;
62927;SDS011;51070;52.236;-0.892;2022-09-09T06:23:22;15.60;;;10.00;;
62927;SDS011;51070;52.236;-0.892;2022-09-09T06:25:47;18.40;;;10.80;;
62927;SDS011;51070;52.236;-0.892;2022-09-09T06:28:14;18.00;;;10.70;;
62927;SDS011;51070;52.236;-0.892;2022-09-09T06:30:40;17.50;;;10.00;;
62927;SDS011;51070;52.236;-0.892;2022-09-09T06:33:06;17.90;;;10.50;;
62927;SDS011;51070;52.236;-0.892;2022-09-09T06:35:32;18.50;;;10.70;;
62927;SDS011;51070;52.236;-0.892;2022-09-09T06:37:57;14.60;;;10.20;;
62927;SDS011;51070;52.236;-0.892;2022-09-09T06:40:24;13.40;;;8.80;;
62927;SDS011;51070;52.236;-0.892;2022-09-09T06:42:50;17.80;;;10.10;;
62927;SDS011;51070;52.236;-0.892;2022-09-09T06:45:15;17.20;;;10.20;;
62927;SDS011;51070;52.236;-0.892;2022-09-09T06:47:42;16.00;;;9.70;;
62927;SDS011;51070;52.236;-0.892;2022-09-09T06:50:08;15.80;;;10.20;;
62927;SDS011;51070;52.236;-0.892;2022-09-09T06:52:36;16.90;;;9.70;;
62927;SDS011;51070;52.236;-0.892;2022-09-09T06:55:02;15.70;;;9.80;;
62927;SDS011;51070;52.236;-0.892;2022-09-09T06:57:28;17.10;;;9.80;;
62927;SDS011;51070;52.236;-0.892;2022-09-09T06:59:54;17.30;;;10.50;;
62927;SDS011;51070;52.236;-0.892;2022-09-09T07:02:19;15.20;;;9.40;;
62927;SDS011;51070;52.236;-0.892;2022-09-09T07:04:46;13.70;;;10.40;;
62927;SDS011;51070;52.236;-0.892;2022-09-09T07:07:12;14.80;;;10.10;;
62927;SDS011;51070;52.236;-0.892;2022-09-09T07:12:05;15.60;;;9.70;;
62927;SDS011;51070;52.236;-0.892;2022-09-09T07:14:31;14.40;;;9.00;;
62927;SDS011;51070;52.236;-0.892;2022-09-09T07:16:59;15.20;;;10.10;;
62927;SDS011;51070;52.236;-0.892;2022-09-09T07:19:25;17.00;;;9.30;;
62927;SDS011;51070;52.236;-0.892;2022-09-09T07:21:51;13.80;;;9.10;;
62927;SDS011;51070;52.236;-0.892;2022-09-09T07:24:16;13.10;;;9.50;;
62927;SDS011;51070;52.236;-0.892;2022-09-09T07:26:42;17.20;;;10.30;;
62927;SDS011;51070;52.236;-0.892;2022-09-09T07:29:09;17.30;;;9.60;;
62927;SDS011;51070;52.236;-0.892;2022-09-09T07:31:35;23.80;;;9.60;;
62927;SDS011;51070;52.236;-0.892;2022-09-09T07:34:03;18.30;;;9.50;;
62927;SDS011;51070;52.236;-0.892;2022-09-09T07:36:30;25.40;;;10.40;;
62927;SDS011;51070;52.236;-0.892;2022-09-09T07:38:58;16.60;;;9.10;;
62927;SDS011;51070;52.236;-0.892;2022-09-09T07:41:28;15.90;;;9.10;;
62927;SDS011;51070;52.236;-0.892;2022-09-09T07:43:57;17.10;;;9.40;;
62927;SDS011;51070;52.236;-0.892;2022-09-09T07:46:24;18.20;;;9.10;;
62927;SDS011;51070;52.236;-0.892;2022-09-09T07:48:52;25.90;;;11.00;;
62927;SDS011;51070;52.236;-0.892;2022-09-09T07:51:21;19.40;;;11.80;;
62927;SDS011;51070;52.236;-0.892;2022-09-09T07:53:52;29.70;;;11.80;;
62927;SDS011;51070;52.236;-0.892;2022-09-09T07:56:19;18.70;;;11.00;;
62927;SDS011;51070;52.236;-0.892;2022-09-09T08:01:15;33.20;;;11.90;;
62927;SDS011;51070;52.236;-0.892;2022-09-09T08:03:51;24.90;;;11.90;;
62927;SDS011;51070;52.236;-0.892;2022-09-09T08:06:19;18.70;;;9.80;;
62927;SDS011;51070;52.236;-0.892;2022-09-09T08:08:45;18.70;;;11.10;;
62927;SDS011;51070;52.236;-0.892;2022-09-09T08:11:15;18.00;;;12.00;;
62927;SDS011;51070;52.236;-0.892;2022-09-09T08:13:42;18.50;;;10.60;;
62927;SDS011;51070;52.236;-0.892;2022-09-09T08:16:10;16.60;;;10.70;;
62927;SDS011;51070;52.236;-0.892;2022-09-09T08:18:38;24.50;;;13.10;;
62927;SDS011;51070;52.236;-0.892;2022-09-09T08:21:38;17.30;;;11.60;;
62927;SDS011;51070;52.236;-0.892;2022-09-09T08:23:59;18.90;;;11.30;;
62927;SDS011;51070;52.236;-0.892;2022-09-09T08:26:45;20.60;;;11.60;;
62927;SDS011;51070;52.236;-0.892;2022-09-09T08:29:14;16.50;;;12.20;;
62927;SDS011;51070;52.236;-0.892;2022-09-09T08:31:42;17.70;;;12.20;;
62927;SDS011;51070;52.236;-0.892;2022-09-09T08:34:09;17.90;;;12.10;;
62927;SDS011;51070;52.236;-0.892;2022-09-09T08:36:37;18.20;;;11.70;;
62927;SDS011;51070;52.236;-0.892;2022-09-09T08:39:06;17.50;;;12.00;;
62927;SDS011;51070;52.236;-0.892;2022-09-09T08:49:23;12.50;;;9.50;;
62927;SDS011;51070;52.236;-0.892;2022-09-09T08:52:04;17.20;;;10.30;;
62927;SDS011;51070;52.236;-0.892;2022-09-09T08:54:38;22.40;;;11.70;;
62927;SDS011;51070;52.236;-0.892;2022-09-09T08:57:05;22.00;;;12.70;;
62927;SDS011;51070;52.236;-0.892;2022-09-09T08:59:43;27.40;;;14.10;;
62927;SDS011;51070;52.236;-0.892;2022-09-09T09:02:16;19.60;;;12.60;;
62927;SDS011;51070;52.236;-0.892;2022-09-09T09:04:54;11.50;;;10.10;;
62927;SDS011;51070;52.236;-0.892;2022-09-09T09:10:29;12.20;;;10.40;;
62927;SDS011;51070;52.236;-0.892;2022-09-09T09:16:27;10.20;;;7.90;;
62927;SDS011;51070;52.236;-0.892;2022-09-09T09:19:03;9.60;;;8.10;;
62927;SDS011;51070;52.236;-0.892;2022-09-09T09:21:36;11.20;;;8.10;;
62927;SDS011;51070;52.236;-0.892;2022-09-09T09:24:04;11.20;;;8.50;;
62927;SDS011;51070;52.236;-0.892;2022-09-09T09:26:40;11.10;;;7.60;;
62927;SDS011;51070;52.236;-0.892;2022-09-09T09:29:12;10.40;;;7.60;;
62927;SDS011;51070;52.236;-0.892;2022-09-09T09:31:45;8.40;;;7.60;;
62927;SDS011;51070;52.236;-0.892;2022-09-09T09:34:16;8.90;;;6.80;;
62927;SDS011;51070;52.236;-0.892;2022-09-09T09:36:46;10.50;;;7.50;;
62927;SDS011;51070;52.236;-0.892;2022-09-09T09:41:56;8.60;;;6.40;;
62927;SDS011;51070;52.236;-0.892;2022-09-09T09:44:31;11.30;;;7.40;;
62927;SDS011;51070;52.236;-0.892;2022-09-09T09:49:50;8.30;;;6.30;;
62927;SDS011;51070;52.236;-0.892;2022-09-09T09:52:24;13.40;;;7.10;;
62927;SDS011;51070;52.236;-0.892;2022-09-09T09:54:52;10.20;;;6.70;;
62927;SDS011;51070;52.236;-0.892;2022-09-09T09:57:22;7.50;;;6.70;;
62927;SDS011;51070;52.236;-0.892;2022-09-09T10:00:00;7.60;;;6.10;;
62927;SDS011;51070;52.236;-0.892;2022-09-09T10:02:31;8.80;;;5.60;;
62927;SDS011;51070;52.236;-0.892;2022-09-09T10:05:12;7.30;;;5.30;;
62927;SDS011;51070;52.236;-0.892;2022-09-09T10:07:43;6.50;;;5.10;;
62927;SDS011;51070;52.236;-0.892;2022-09-09T10:10:12;5.40;;;4.60;;
62927;SDS011;51070;52.236;-0.892;2022-09-09T10:16:08;7.90;;;5.60;;
62927;SDS011;51070;52.236;-0.892;2022-09-09T10:18:56;9.20;;;4.90;;
62927;SDS011;51070;52.236;-0.892;2022-09-09T10:30:09;7.50;;;4.90;;
62927;SDS011;51070;52.236;-0.892;2022-09-09T10:35:56;8.80;;;5.00;;
62927;SDS011;51070;52.236;-0.892;2022-09-09T10:38:38;8.20;;;5.90;;
62927;SDS011;51070;52.236;-0.892;2022-09-09T10:43:55;6.90;;;4.90;;
62927;SDS011;51070;52.236;-0.892;2022-09-09T10:46:45;10.70;;;5.40;;
62927;SDS011;51070;52.236;-0.892;2022-09-09T10:49:48;8.20;;;5.30;;
62927;SDS011;51070;52.236;-0.892;2022-09-09T10:55:07;10.40;;;5.00;;
62927;SDS011;51070;52.236;-0.892;2022-09-09T10:57:43;8.10;;;5.70;;
62927;SDS011;51070;52.236;-0.892;2022-09-09T11:00:18;9.60;;;5.50;;
62927;SDS011;51070;52.236;-0.892;2022-09-09T11:02:51;7.70;;;5.50;;
62927;SDS011;51070;52.236;-0.892;2022-09-09T11:07:58;12.80;;;7.00;;
62927;SDS011;51070;52.236;-0.892;2022-09-09T11:10:44;11.50;;;7.20;;
62927;SDS011;51070;52.236;-0.892;2022-09-09T11:16:00;9.50;;;6.40;;
62927;SDS011;51070;52.236;-0.892;2022-09-09T11:18:39;10.10;;;6.50;;
62927;SDS011;51070;52.236;-0.892;2022-09-09T11:23:42;11.10;;;6.80;;
62927;SDS011;51070;52.236;-0.892;2022-09-09T11:26:27;9.50;;;6.50;;
62927;SDS011;51070;52.236;-0.892;2022-09-09T11:44:38;12.00;;;7.10;;
62927;SDS011;51070;52.236;-0.892;2022-09-09T11:47:04;11.20;;;7.30;;
62927;SDS011;51070;52.236;-0.892;2022-09-09T11:49:47;13.00;;;7.00;;
62927;SDS011;51070;52.236;-0.892;2022-09-09T11:52:23;9.70;;;6.20;;
62927;SDS011;51070;52.236;-0.892;2022-09-09T11:55:07;8.60;;;5.90;;
62927;SDS011;51070;52.236;-0.892;2022-09-09T11:57:48;9.70;;;6.20;;
62927;SDS011;51070;52.236;-0.892;2022-09-09T12:00:51;9.30;;;5.70;;
62927;SDS011;51070;52.236;-0.892;2022-09-09T12:03:38;8.10;;;5.80;;
62927;SDS011;51070;52.236;-0.892;2022-09-09T12:06:09;7.70;;;4.60;;
62927;SDS011;51070;52.236;-0.892;2022-09-09T12:08:36;9.60;;;6.00;;
62927;SDS011;51070;52.236;-0.892;2022-09-09T12:11:07;10.70;;;6.10;;
62927;SDS011;51070;52.236;-0.892;2022-09-09T12:13:32;12.70;;;6.00;;
62927;SDS011;51070;52.236;-0.892;2022-09-09T12:16:01;8.70;;;6.30;;
62927;SDS011;51070;52.236;-0.892;2022-09-09T12:18:34;7.40;;;4.50;;
62927;SDS011;51070;52.236;-0.892;2022-09-09T12:26:50;11.20;;;6.10;;
62927;SDS011;51070;52.236;-0.892;2022-09-09T12:29:26;11.60;;;6.50;;
62927;SDS011;51070;52.236;-0.892;2022-09-09T12:34:42;8.20;;;5.00;;
62927;SDS011;51070;52.236;-0.892;2022-09-09T12:40:05;8.20;;;4.10;;
62927;SDS011;51070;52.236;-0.892;2022-09-09T12:42:43;8.40;;;4.80;;
62927;SDS011;51070;52.236;-0.892;2022-09-09T12:45:16;8.70;;;4.90;;
62927;SDS011;51070;52.236;-0.892;2022-09-09T12:50:19;10.10;;;6.10;;
62927;SDS011;51070;52.236;-0.892;2022-09-09T12:52:49;9.50;;;5.80;;
62927;SDS011;51070;52.236;-0.892;2022-09-09T12:55:24;10.10;;;5.90;;
62927;SDS011;51070;52.236;-0.892;2022-09-09T12:57:55;8.80;;;5.80;;
62927;SDS011;51070;52.236;-0.892;2022-09-09T13:00:23;8.50;;;5.10;;
62927;SDS011;51070;52.236;-0.892;2022-09-09T13:02:51;7.40;;;5.00;;
62927;SDS011;51070;52.236;-0.892;2022-09-09T13:07:45;12.30;;;6.40;;
62927;SDS011;51070;52.236;-0.892;2022-09-09T13:10:13;6.30;;;4.30;;
62927;SDS011;51070;52.236;-0.892;2022-09-09T13:12:40;7.10;;;4.90;;
62927;SDS011;51070;52.236;-0.892;2022-09-09T13:15:12;8.20;;;4.80;;
62927;SDS011;51070;52.236;-0.892;2022-09-09T13:17:48;6.60;;;4.30;;
62927;SDS011;51070;52.236;-0.892;2022-09-09T13:20:17;8.00;;;4.60;;
62927;SDS011;51070;52.236;-0.892;2022-09-09T13:22:44;7.60;;;4.50;;
62927;SDS011;51070;52.236;-0.892;2022-09-09T13:27:36;6.70;;;4.00;;
62927;SDS011;51070;52.236;-0.892;2022-09-09T13:30:20;7.50;;;3.80;;
62927;SDS011;51070;52.236;-0.892;2022-09-09T13:32:59;5.80;;;4.50;;
62927;SDS011;51070;52.236;-0.892;2022-09-09T13:35:28;9.20;;;5.10;;
62927;SDS011;51070;52.236;-0.892;2022-09-09T13:37:55;7.90;;;5.20;;
62927;SDS011;51070;52.236;-0.892;2022-09-09T13:40:21;5.70;;;4.60;;
62927;SDS011;51070;52.236;-0.892;2022-09-09T13:42:52;10.30;;;5.70;;
62927;SDS011;51070;52.236;-0.892;2022-09-09T13:45:22;9.70;;;4.80;;
62927;SDS011;51070;52.236;-0.892;2022-09-09T13:47:51;11.90;;;6.30;;
62927;SDS011;51070;52.236;-0.892;2022-09-09T13:50:25;8.30;;;5.70;;
62927;SDS011;51070;52.236;-0.892;2022-09-09T13:52:54;7.80;;;3.30;;
62927;SDS011;51070;52.236;-0.892;2022-09-09T13:55:23;4.50;;;3.00;;
62927;SDS011;51070;52.236;-0.892;2022-09-09T14:00:21;3.50;;;1.90;;
62927;SDS011;51070;52.236;-0.892;2022-09-09T14:02:49;4.30;;;2.70;;
62927;SDS011;51070;52.236;-0.892;2022-09-09T14:05:15;4.60;;;2.80;;
62927;SDS011;51070;52.236;-0.892;2022-09-09T14:07:41;7.90;;;2.90;;
62927;SDS011;51070;52.236;-0.892;2022-09-09T14:10:08;15.00;;;9.60;;
62927;SDS011;51070;52.236;-0.892;2022-09-09T14:12:34;15.30;;;10.50;;
62927;SDS011;51070;52.236;-0.892;2022-09-09T14:15:01;13.30;;;10.50;;
62927;SDS011;51070;52.236;-0.892;2022-09-09T14:17:28;13.50;;;9.60;;
62927;SDS011;51070;52.236;-0.892;2022-09-09T14:19:55;10.90;;;7.60;;
62927;SDS011;51070;52.236;-0.892;2022-09-09T14:22:21;5.60;;;4.60;;
62927;SDS011;51070;52.236;-0.892;2022-09-09T14:24:47;6.20;;;3.70;;
62927;SDS011;51070;52.236;-0.892;2022-09-09T14:27:13;5.10;;;3.50;;
62927;SDS011;51070;52.236;-0.892;2022-09-09T14:29:39;5.90;;;3.00;;
62927;SDS011;51070;52.236;-0.892;2022-09-09T14:32:04;8.30;;;3.40;;
62927;SDS011;51070;52.236;-0.892;2022-09-09T14:34:30;5.30;;;3.70;;
62927;SDS011;51070;52.236;-0.892;2022-09-09T14:36:57;6.70;;;3.60;;
62927;SDS011;51070;52.236;-0.892;2022-09-09T14:39:23;5.70;;;4.10;;
62927;SDS011;51070;52.236;-0.892;2022-09-09T14:41:49;7.70;;;4.60;;
62927;SDS011;51070;52.236;-0.892;2022-09-09T14:44:15;14.20;;;4.80;;
62927;SDS011;51070;52.236;-0.892;2022-09-09T14:46:41;6.30;;;4.40;;
62927;SDS011;51070;52.236;-0.892;2022-09-09T14:49:10;5.50;;;4.30;;
62927;SDS011;51070;52.236;-0.892;2022-09-09T14:51:38;6.50;;;3.60;;
62927;SDS011;51070;52.236;-0.892;2022-09-09T14:54:03;4.30;;;2.90;;
62927;SDS011;51070;52.236;-0.892;2022-09-09T14:56:30;5.80;;;3.50;;
62927;SDS011;51070;52.236;-0.892;2022-09-09T14:58:59;5.00;;;3.30;;
62927;SDS011;51070;52.236;-0.892;2022-09-09T15:01:28;4.90;;;3.50;;
62927;SDS011;51070;52.236;-0.892;2022-09-09T15:03:55;5.80;;;3.50;;
62927;SDS011;51070;52.236;-0.892;2022-09-09T15:06:26;5.50;;;3.60;;
62927;SDS011;51070;52.236;-0.892;2022-09-09T15:08:54;4.80;;;4.00;;
62927;SDS011;51070;52.236;-0.892;2022-09-09T15:11:23;8.80;;;5.50;;
62927;SDS011;51070;52.236;-0.892;2022-09-09T15:13:51;5.40;;;3.20;;
62927;SDS011;51070;52.236;-0.892;2022-09-09T15:16:18;6.20;;;2.60;;
62927;SDS011;51070;52.236;-0.892;2022-09-09T15:18:45;5.00;;;2.90;;
62927;SDS011;51070;52.236;-0.892;2022-09-09T15:21:13;5.40;;;2.60;;
62927;SDS011;51070;52.236;-0.892;2022-09-09T15:23:40;7.20;;;2.90;;
62927;SDS011;51070;52.236;-0.892;2022-09-09T15:26:06;4.80;;;2.30;;
62927;SDS011;51070;52.236;-0.892;2022-09-09T15:28:33;3.80;;;2.10;;
62927;SDS011;51070;52.236;-0.892;2022-09-09T15:31:07;2.40;;;1.70;;
62927;SDS011;51070;52.236;-0.892;2022-09-09T15:33:36;3.80;;;1.80;;
62927;SDS011;51070;52.236;-0.892;2022-09-09T15:36:24;4.00;;;1.50;;
62927;SDS011;51070;52.236;-0.892;2022-09-09T15:38:51;1.80;;;1.40;;
62927;SDS011;51070;52.236;-0.892;2022-09-09T15:41:18;3.90;;;1.70;;
62927;SDS011;51070;52.236;-0.892;2022-09-09T15:43:46;3.00;;;1.80;;
62927;SDS011;51070;52.236;-0.892;2022-09-09T15:48:51;2.10;;;1.40;;
62927;SDS011;51070;52.236;-0.892;2022-09-09T15:51:17;4.60;;;1.70;;
62927;SDS011;51070;52.236;-0.892;2022-09-09T15:53:44;1.60;;;1.00;;
62927;SDS011;51070;52.236;-0.892;2022-09-09T15:56:10;2.60;;;1.60;;
62927;SDS011;51070;52.236;-0.892;2022-09-09T15:58:35;4.80;;;1.90;;
62927;SDS011;51070;52.236;-0.892;2022-09-09T16:01:05;4.60;;;1.50;;
62927;SDS011;51070;52.236;-0.892;2022-09-09T16:03:35;1.80;;;1.20;;
62927;SDS011;51070;52.236;-0.892;2022-09-09T16:06:05;1.30;;;1.10;;
62927;SDS011;51070;52.236;-0.892;2022-09-09T16:08:32;2.50;;;1.50;;
62927;SDS011;51070;52.236;-0.892;2022-09-09T16:13:56;5.00;;;1.50;;
62927;SDS011;51070;52.236;-0.892;2022-09-09T16:16:23;2.50;;;1.60;;
62927;SDS011;51070;52.236;-0.892;2022-09-09T16:18:52;4.50;;;1.90;;
62927;SDS011;51070;52.236;-0.892;2022-09-09T16:23:52;3.30;;;1.30;;
62927;SDS011;51070;52.236;-0.892;2022-09-09T16:26:18;4.50;;;1.40;;
62927;SDS011;51070;52.236;-0.892;2022-09-09T16:28:44;3.80;;;2.10;;
62927;SDS011;51070;52.236;-0.892;2022-09-09T16:31:12;2.00;;;1.80;;
62927;SDS011;51070;52.236;-0.892;2022-09-09T16:33:43;4.40;;;2.20;;
62927;SDS011;51070;52.236;-0.892;2022-09-09T16:36:10;4.50;;;3.10;;
62927;SDS011;51070;52.236;-0.892;2022-09-09T16:38:39;6.50;;;3.80;;
62927;SDS011;51070;52.236;-0.892;2022-09-09T16:41:06;10.30;;;4.50;;
62927;SDS011;51070;52.236;-0.892;2022-09-09T16:43:34;7.50;;;4.00;;
62927;SDS011;51070;52.236;-0.892;2022-09-09T16:46:01;5.60;;;4.40;;
62927;SDS011;51070;52.236;-0.892;2022-09-09T16:48:32;7.30;;;6.20;;
62927;SDS011;51070;52.236;-0.892;2022-09-09T16:51:04;17.20;;;11.30;;
62927;SDS011;51070;52.236;-0.892;2022-09-09T16:53:33;9.60;;;6.70;;
62927;SDS011;51070;52.236;-0.892;2022-09-09T16:56:15;6.70;;;4.90;;
62927;SDS011;51070;52.236;-0.892;2022-09-09T16:58:43;6.70;;;4.60;;
62927;SDS011;51070;52.236;-0.892;2022-09-09T17:01:14;5.50;;;4.40;;
62927;SDS011;51070;52.236;-0.892;2022-09-09T17:03:39;7.70;;;5.60;;
62927;SDS011;51070;52.236;-0.892;2022-09-09T17:06:12;11.00;;;5.30;;